sensor_id;sensor_type;location;lat;lon;timestamp;pressure;altitude;pressure_sealevel;temperature;humidity
49377;BME280;35253;34.688;33.040;2022-09-06T00:02:19;100213.31;;;28.86;100.00
49377;BME280;35253;34.688;33.040;2022-09-06T00:04:45;100215.78;;;28.94;100.00
49377;BME280;35253;34.688;33.040;2022-09-06T00:07:10;100219.41;;;28.88;100.00
49377;BME280;35253;34.688;33.040;2022-09-06T00:09:36;100215.56;;;28.95;100.00
49377;BME280;35253;34.688;33.040;2022-09-06T00:12:01;100219.84;;;28.85;100.00
49377;BME280;35253;34.688;33.040;2022-09-06T00:14:27;100216.25;;;28.91;100.00
49377;BME280;35253;34.688;33.040;2022-09-06T00:16:52;100217.69;;;28.93;100.00
49377;BME280;35253;34.688;33.040;2022-09-06T00:19:18;100220.63;;;28.92;100.00
49377;BME280;35253;34.688;33.040;2022-09-06T00:21:43;100217.69;;;28.93;100.00
49377;BME280;35253;34.688;33.040;2022-09-06T00:24:08;100223.25;;;28.80;100.00
49377;BME280;35253;34.688;33.040;2022-09-06T00:26:34;100215.19;;;28.85;100.00
49377;BME280;35253;34.688;33.040;2022-09-06T00:29:00;100212.47;;;28.85;100.00
49377;BME280;35253;34.688;33.040;2022-09-06T00:31:25;100213.50;;;28.84;100.00
49377;BME280;35253;34.688;33.040;2022-09-06T00:33:51;100215.66;;;28.82;100.00
49377;BME280;35253;34.688;33.040;2022-09-06T00:36:16;100218.81;;;28.79;100.00
49377;BME280;35253;34.688;33.040;2022-09-06T00:38:42;100212.28;;;28.80;100.00
49377;BME280;35253;34.688;33.040;2022-09-06T00:41:08;100210.38;;;28.81;100.00
49377;BME280;35253;34.688;33.040;2022-09-06T00:43:34;100210.34;;;28.87;100.00
49377;BME280;35253;34.688;33.040;2022-09-06T00:46:00;100214.34;;;28.91;100.00
49377;BME280;35253;34.688;33.040;2022-09-06T00:48:26;100213.50;;;28.91;100.00
49377;BME280;35253;34.688;33.040;2022-09-06T00:50:52;100207.69;;;28.74;100.00
49377;BME280;35253;34.688;33.040;2022-09-06T00:53:20;100213.19;;;28.74;100.00
49377;BME280;35253;34.688;33.040;2022-09-06T00:55:46;100211.44;;;28.80;100.00
49377;BME280;35253;34.688;33.040;2022-09-06T00:58:13;100199.66;;;28.73;100.00
49377;BME280;35253;34.688;33.040;2022-09-06T01:00:38;100202.63;;;28.71;100.00
49377;BME280;35253;34.688;33.040;2022-09-06T01:03:05;100202.25;;;28.61;100.00
49377;BME280;35253;34.688;33.040;2022-09-06T01:05:37;100198.59;;;28.67;100.00
49377;BME280;35253;34.688;33.040;2022-09-06T01:13:25;100197.63;;;28.48;100.00
49377;BME280;35253;34.688;33.040;2022-09-06T01:16:06;100200.22;;;28.43;100.00
49377;BME280;35253;34.688;33.040;2022-09-06T01:23:47;100188.63;;;28.35;100.00
49377;BME280;35253;34.688;33.040;2022-09-06T01:28:57;100196.44;;;28.38;100.00
49377;BME280;35253;34.688;33.040;2022-09-06T01:36:33;100204.03;;;28.36;100.00
49377;BME280;35253;34.688;33.040;2022-09-06T01:39:01;100191.16;;;28.43;100.00
49377;BME280;35253;34.688;33.040;2022-09-06T01:41:26;100192.19;;;28.42;100.00
49377;BME280;35253;34.688;33.040;2022-09-06T01:43:52;100195.16;;;28.40;100.00
49377;BME280;35253;34.688;33.040;2022-09-06T01:51:30;100194.38;;;28.27;100.00
49377;BME280;35253;34.688;33.040;2022-09-06T01:54:00;100195.19;;;28.34;100.00
49377;BME280;35253;34.688;33.040;2022-09-06T01:56:34;100196.50;;;28.25;100.00
49377;BME280;35253;34.688;33.040;2022-09-06T02:04:07;100193.09;;;28.29;100.00
49377;BME280;35253;34.688;33.040;2022-09-06T02:06:38;100202.38;;;28.21;100.00
49377;BME280;35253;34.688;33.040;2022-09-06T02:09:14;100202.00;;;28.18;100.00
49377;BME280;35253;34.688;33.040;2022-09-06T02:12:00;100197.78;;;28.15;100.00
49377;BME280;35253;34.688;33.040;2022-09-06T02:14:28;100202.03;;;28.11;100.00
49377;BME280;35253;34.688;33.040;2022-09-06T02:16:55;100192.31;;;28.02;100.00
49377;BME280;35253;34.688;33.040;2022-09-06T02:20:08;100195.06;;;27.96;100.00
49377;BME280;35253;34.688;33.040;2022-09-06T02:22:09;100202.22;;;28.03;100.00
49377;BME280;35253;34.688;33.040;2022-09-06T02:24:36;100201.59;;;28.01;100.00
49377;BME280;35253;34.688;33.040;2022-09-06T02:27:05;100203.50;;;28.07;100.00
49377;BME280;35253;34.688;33.040;2022-09-06T02:29:30;100201.19;;;28.11;100.00
49377;BME280;35253;34.688;33.040;2022-09-06T02:32:05;100200.75;;;28.07;100.00
49377;BME280;35253;34.688;33.040;2022-09-06T02:34:32;100212.16;;;28.11;100.00
49377;BME280;35253;34.688;33.040;2022-09-06T02:37:00;100210.00;;;28.13;100.00
49377;BME280;35253;34.688;33.040;2022-09-06T02:39:26;100219.94;;;28.14;100.00
49377;BME280;35253;34.688;33.040;2022-09-06T02:41:51;100229.00;;;28.14;100.00
49377;BME280;35253;34.688;33.040;2022-09-06T02:44:17;100220.97;;;28.19;100.00
49377;BME280;35253;34.688;33.040;2022-09-06T02:46:42;100227.75;;;28.17;100.00
49377;BME280;35253;34.688;33.040;2022-09-06T02:49:08;100234.06;;;28.11;100.00
49377;BME280;35253;34.688;33.040;2022-09-06T02:51:37;100227.06;;;28.21;100.00
49377;BME280;35253;34.688;33.040;2022-09-06T02:54:03;100234.06;;;28.11;100.00
49377;BME280;35253;34.688;33.040;2022-09-06T02:56:29;100242.47;;;28.09;100.00
49377;BME280;35253;34.688;33.040;2022-09-06T02:58:54;100239.34;;;28.12;100.00
49377;BME280;35253;34.688;33.040;2022-09-06T03:01:20;100237.66;;;28.11;100.00
49377;BME280;35253;34.688;33.040;2022-09-06T03:03:45;100243.56;;;28.15;100.00
49377;BME280;35253;34.688;33.040;2022-09-06T03:06:11;100238.03;;;28.28;100.00
49377;BME280;35253;34.688;33.040;2022-09-06T03:08:36;100245.22;;;28.22;100.00
49377;BME280;35253;34.688;33.040;2022-09-06T03:11:02;100252.13;;;28.32;100.00
49377;BME280;35253;34.688;33.040;2022-09-06T03:13:27;100247.91;;;28.36;100.00
49377;BME280;35253;34.688;33.040;2022-09-06T03:15:54;100257.16;;;28.41;100.00
49377;BME280;35253;34.688;33.040;2022-09-06T03:18:20;100257.38;;;28.40;100.00
49377;BME280;35253;34.688;33.040;2022-09-06T03:20:47;100263.94;;;28.39;100.00
49377;BME280;35253;34.688;33.040;2022-09-06T03:23:13;100263.25;;;28.50;100.00
49377;BME280;35253;34.688;33.040;2022-09-06T03:25:38;100265.59;;;28.46;100.00
49377;BME280;35253;34.688;33.040;2022-09-06T03:28:04;100273.13;;;28.57;100.00
49377;BME280;35253;34.688;33.040;2022-09-06T03:30:29;100273.97;;;28.58;100.00
49377;BME280;35253;34.688;33.040;2022-09-06T03:32:55;100277.38;;;28.53;100.00
49377;BME280;35253;34.688;33.040;2022-09-06T03:35:20;100279.72;;;28.50;100.00
49377;BME280;35253;34.688;33.040;2022-09-06T03:37:46;100282.00;;;28.53;100.00
49377;BME280;35253;34.688;33.040;2022-09-06T03:40:11;100283.50;;;28.55;100.00
49377;BME280;35253;34.688;33.040;2022-09-06T03:42:36;100287.28;;;28.61;100.00
49377;BME280;35253;34.688;33.040;2022-09-06T03:45:02;100296.97;;;28.63;100.00
49377;BME280;35253;34.688;33.040;2022-09-06T03:47:28;100290.03;;;28.61;100.00
49377;BME280;35253;34.688;33.040;2022-09-06T03:49:53;100293.81;;;28.60;100.00
49377;BME280;35253;34.688;33.040;2022-09-06T03:52:18;100301.22;;;28.59;100.00
49377;BME280;35253;34.688;33.040;2022-09-06T03:54:44;100304.34;;;28.63;100.00
49377;BME280;35253;34.688;33.040;2022-09-06T03:57:09;100305.19;;;28.70;100.00
49377;BME280;35253;34.688;33.040;2022-09-06T03:59:35;100315.31;;;28.76;100.00
49377;BME280;35253;34.688;33.040;2022-09-06T04:02:01;100307.28;;;28.68;100.00
49377;BME280;35253;34.688;33.040;2022-09-06T04:04:26;100315.75;;;28.73;100.00
49377;BME280;35253;34.688;33.040;2022-09-06T04:06:52;100318.69;;;28.78;100.00
49377;BME280;35253;34.688;33.040;2022-09-06T04:09:17;100319.94;;;28.82;100.00
49377;BME280;35253;34.688;33.040;2022-09-06T04:11:43;100322.69;;;28.76;100.00
49377;BME280;35253;34.688;33.040;2022-09-06T04:14:08;100327.50;;;28.87;100.00
49377;BME280;35253;34.688;33.040;2022-09-06T04:16:33;100323.06;;;28.86;100.00
49377;BME280;35253;34.688;33.040;2022-09-06T04:18:59;100325.78;;;28.92;100.00
49377;BME280;35253;34.688;33.040;2022-09-06T04:21:26;100326.34;;;29.07;100.00
49377;BME280;35253;34.688;33.040;2022-09-06T04:23:51;100332.91;;;29.06;100.00
49377;BME280;35253;34.688;33.040;2022-09-06T04:26:17;100336.47;;;29.14;100.00
49377;BME280;35253;34.688;33.040;2022-09-06T04:28:42;100331.56;;;29.22;100.00
49377;BME280;35253;34.688;33.040;2022-09-06T04:31:08;100333.63;;;29.33;100.00
49377;BME280;35253;34.688;33.040;2022-09-06T04:33:34;100320.34;;;29.24;100.00
49377;BME280;35253;34.688;33.040;2022-09-06T04:36:02;100334.06;;;29.30;100.00
49377;BME280;35253;34.688;33.040;2022-09-06T04:38:33;100340.13;;;29.39;100.00
49377;BME280;35253;34.688;33.040;2022-09-06T04:40:58;100347.94;;;29.42;100.00
49377;BME280;35253;34.688;33.040;2022-09-06T04:43:24;100350.06;;;29.40;100.00
49377;BME280;35253;34.688;33.040;2022-09-06T04:45:49;100354.13;;;29.31;100.00
49377;BME280;35253;34.688;33.040;2022-09-06T04:48:15;100350.88;;;29.40;100.00
49377;BME280;35253;34.688;33.040;2022-09-06T04:50:40;100350.50;;;29.37;100.00
49377;BME280;35253;34.688;33.040;2022-09-06T04:53:06;100345.38;;;29.40;100.00
49377;BME280;35253;34.688;33.040;2022-09-06T04:55:32;100344.03;;;29.56;100.00
49377;BME280;35253;34.688;33.040;2022-09-06T04:57:58;100343.56;;;29.66;100.00
49377;BME280;35253;34.688;33.040;2022-09-06T05:00:25;100333.28;;;29.79;100.00
49377;BME280;35253;34.688;33.040;2022-09-06T05:02:50;100348.94;;;29.79;100.00
49377;BME280;35253;34.688;33.040;2022-09-06T05:05:15;100342.59;;;29.78;100.00
49377;BME280;35253;34.688;33.040;2022-09-06T05:07:41;100335.81;;;29.81;100.00
49377;BME280;35253;34.688;33.040;2022-09-06T05:10:06;100333.81;;;29.94;100.00
49377;BME280;35253;34.688;33.040;2022-09-06T05:12:32;100335.56;;;30.14;100.00
49377;BME280;35253;34.688;33.040;2022-09-06T05:14:57;100331.38;;;30.29;100.00
49377;BME280;35253;34.688;33.040;2022-09-06T05:17:23;100334.81;;;30.43;100.00
49377;BME280;35253;34.688;33.040;2022-09-06T05:19:48;100327.22;;;30.45;100.00
49377;BME280;35253;34.688;33.040;2022-09-06T05:22:14;100332.03;;;30.50;100.00
49377;BME280;35253;34.688;33.040;2022-09-06T05:24:39;100327.97;;;30.52;100.00
49377;BME280;35253;34.688;33.040;2022-09-06T05:27:05;100336.81;;;30.54;100.00
49377;BME280;35253;34.688;33.040;2022-09-06T05:29:31;100328.66;;;30.66;100.00
49377;BME280;35253;34.688;33.040;2022-09-06T05:31:57;100336.06;;;30.65;100.00
49377;BME280;35253;34.688;33.040;2022-09-06T05:34:22;100332.84;;;30.68;100.00
49377;BME280;35253;34.688;33.040;2022-09-06T05:36:48;100342.66;;;30.64;100.00
49377;BME280;35253;34.688;33.040;2022-09-06T05:39:13;100335.59;;;30.50;100.00
49377;BME280;35253;34.688;33.040;2022-09-06T05:41:39;100343.00;;;29.82;100.00
49377;BME280;35253;34.688;33.040;2022-09-06T05:44:04;100338.47;;;30.19;100.00
49377;BME280;35253;34.688;33.040;2022-09-06T05:46:30;100336.63;;;29.88;100.00
49377;BME280;35253;34.688;33.040;2022-09-06T05:48:56;100342.41;;;30.05;100.00
49377;BME280;35253;34.688;33.040;2022-09-06T05:51:25;100344.09;;;30.24;100.00
49377;BME280;35253;34.688;33.040;2022-09-06T05:53:51;100340.63;;;30.35;100.00
49377;BME280;35253;34.688;33.040;2022-09-06T05:56:16;100339.41;;;29.81;100.00
49377;BME280;35253;34.688;33.040;2022-09-06T05:58:43;100344.03;;;29.56;100.00
49377;BME280;35253;34.688;33.040;2022-09-06T06:03:40;100334.00;;;29.99;100.00
49377;BME280;35253;34.688;33.040;2022-09-06T06:06:07;100331.56;;;29.53;100.00
49377;BME280;35253;34.688;33.040;2022-09-06T06:08:33;100333.59;;;29.40;100.00
49377;BME280;35253;34.688;33.040;2022-09-06T06:10:59;100333.13;;;29.74;100.00
49377;BME280;35253;34.688;33.040;2022-09-06T06:13:27;100327.66;;;29.99;100.00
49377;BME280;35253;34.688;33.040;2022-09-06T06:15:59;100323.94;;;30.12;100.00
49377;BME280;35253;34.688;33.040;2022-09-06T06:18:27;100326.00;;;30.16;100.00
49377;BME280;35253;34.688;33.040;2022-09-06T06:21:05;100335.56;;;30.14;100.00
49377;BME280;35253;34.688;33.040;2022-09-06T06:23:30;100326.03;;;29.85;100.00
49377;BME280;35253;34.688;33.040;2022-09-06T06:25:56;100324.09;;;30.17;100.00
49377;BME280;35253;34.688;33.040;2022-09-06T06:28:21;100324.34;;;29.90;100.00
49377;BME280;35253;34.688;33.040;2022-09-06T06:30:46;100328.81;;;30.10;100.00
49377;BME280;35253;34.688;33.040;2022-09-06T06:33:12;100326.31;;;29.52;100.00
49377;BME280;35253;34.688;33.040;2022-09-06T06:35:37;100325.00;;;29.54;100.00
49377;BME280;35253;34.688;33.040;2022-09-06T06:38:03;100326.94;;;29.09;100.00
49377;BME280;35253;34.688;33.040;2022-09-06T06:40:28;100321.53;;;29.41;100.00
49377;BME280;35253;34.688;33.040;2022-09-06T06:42:54;100333.53;;;29.02;100.00
49377;BME280;35253;34.688;33.040;2022-09-06T06:45:20;100332.31;;;29.36;100.00
49377;BME280;35253;34.688;33.040;2022-09-06T06:47:48;100335.44;;;29.71;100.00
49377;BME280;35253;34.688;33.040;2022-09-06T06:50:13;100339.41;;;29.50;100.00
49377;BME280;35253;34.688;33.040;2022-09-06T06:52:39;100330.88;;;29.65;100.00
49377;BME280;35253;34.688;33.040;2022-09-06T06:55:05;100332.31;;;29.36;100.00
49377;BME280;35253;34.688;33.040;2022-09-06T06:57:30;100331.19;;;29.50;100.00
49377;BME280;35253;34.688;33.040;2022-09-06T06:59:56;100339.28;;;29.70;100.00
49377;BME280;35253;34.688;33.040;2022-09-06T07:02:22;100342.94;;;29.26;100.00
49377;BME280;35253;34.688;33.040;2022-09-06T07:04:47;100347.59;;;29.25;100.00
49377;BME280;35253;34.688;33.040;2022-09-06T07:07:13;100347.97;;;29.29;100.00
49377;BME280;35253;34.688;33.040;2022-09-06T07:09:38;100342.31;;;29.62;100.00
49377;BME280;35253;34.688;33.040;2022-09-06T07:12:04;100349.44;;;29.38;100.00
49377;BME280;35253;34.688;33.040;2022-09-06T07:14:30;100356.44;;;29.27;100.00
49377;BME280;35253;34.688;33.040;2022-09-06T07:16:55;100359.09;;;29.02;100.00
49377;BME280;35253;34.688;33.040;2022-09-06T07:19:23;100356.09;;;29.17;100.00
49377;BME280;35253;34.688;33.040;2022-09-06T07:21:49;100357.22;;;29.41;100.00
49377;BME280;35253;34.688;33.040;2022-09-06T07:24:14;100351.47;;;29.49;100.00
49377;BME280;35253;34.688;33.040;2022-09-06T07:26:40;100352.47;;;29.61;100.00
49377;BME280;35253;34.688;33.040;2022-09-06T07:29:06;100359.31;;;29.45;100.00
49377;BME280;35253;34.688;33.040;2022-09-06T07:31:32;100359.97;;;29.41;100.00
49377;BME280;35253;34.688;33.040;2022-09-06T07:33:57;100354.75;;;29.33;100.00
49377;BME280;35253;34.688;33.040;2022-09-06T07:36:23;100353.88;;;29.39;100.00
49377;BME280;35253;34.688;33.040;2022-09-06T07:38:49;100357.13;;;29.54;100.00
49377;BME280;35253;34.688;33.040;2022-09-06T07:41:15;100348.19;;;29.65;100.00
49377;BME280;35253;34.688;33.040;2022-09-06T07:43:42;100342.69;;;29.65;100.00
49377;BME280;35253;34.688;33.040;2022-09-06T07:48:34;100346.59;;;29.82;100.00
49377;BME280;35253;34.688;33.040;2022-09-06T07:51:10;100342.78;;;29.83;100.00
49377;BME280;35253;34.688;33.040;2022-09-06T07:53:37;100347.34;;;29.65;100.00
49377;BME280;35253;34.688;33.040;2022-09-06T07:56:04;100344.81;;;29.94;100.00
49377;BME280;35253;34.688;33.040;2022-09-06T07:58:30;100345.25;;;30.16;100.00
49377;BME280;35253;34.688;33.040;2022-09-06T08:03:40;100343.72;;;30.45;100.00
49377;BME280;35253;34.688;33.040;2022-09-06T08:06:06;100338.34;;;30.32;100.00
49377;BME280;35253;34.688;33.040;2022-09-06T08:08:31;100335.31;;;30.58;100.00
49377;BME280;35253;34.688;33.040;2022-09-06T08:10:57;100330.91;;;30.32;100.00
49377;BME280;35253;34.688;33.040;2022-09-06T08:13:22;100323.81;;;30.43;100.00
49377;BME280;35253;34.688;33.040;2022-09-06T08:15:47;100328.81;;;30.53;100.00
49377;BME280;35253;34.688;33.040;2022-09-06T08:18:13;100328.47;;;30.42;100.00
49377;BME280;35253;34.688;33.040;2022-09-06T08:20:38;100320.47;;;30.59;100.00
49377;BME280;35253;34.688;33.040;2022-09-06T08:23:10;100328.66;;;30.66;100.00
49377;BME280;35253;34.688;33.040;2022-09-06T08:25:36;100327.44;;;30.62;100.00
49377;BME280;35253;34.688;33.040;2022-09-06T08:28:01;100336.81;;;30.72;100.00
49377;BME280;35253;34.688;33.040;2022-09-06T08:30:27;100338.91;;;30.59;100.00
49377;BME280;35253;34.688;33.040;2022-09-06T08:32:53;100328.56;;;30.91;100.00
49377;BME280;35253;34.688;33.040;2022-09-06T08:35:20;100329.16;;;30.38;100.00
49377;BME280;35253;34.688;33.040;2022-09-06T08:37:46;100338.31;;;30.14;100.00
49377;BME280;35253;34.688;33.040;2022-09-06T08:40:11;100337.47;;;30.13;100.00
49377;BME280;35253;34.688;33.040;2022-09-06T08:42:39;100331.19;;;30.24;100.00
49377;BME280;35253;34.688;33.040;2022-09-06T08:45:04;100329.28;;;30.25;100.00
49377;BME280;35253;34.688;33.040;2022-09-06T08:47:34;100327.91;;;30.16;100.00
49377;BME280;35253;34.688;33.040;2022-09-06T08:50:01;100328.09;;;29.96;100.00
49377;BME280;35253;34.688;33.040;2022-09-06T09:00:17;100321.31;;;29.98;100.00
49377;BME280;35253;34.688;33.040;2022-09-06T09:13:08;100317.88;;;30.46;100.00
49377;BME280;35253;34.688;33.040;2022-09-06T09:15:38;100320.00;;;30.44;100.00
49377;BME280;35253;34.688;33.040;2022-09-06T09:18:03;100310.63;;;30.52;100.00
49377;BME280;35253;34.688;33.040;2022-09-06T09:20:28;100329.66;;;30.53;100.00
49377;BME280;35253;34.688;33.040;2022-09-06T09:22:54;100333.78;;;30.62;100.00
49377;BME280;35253;34.688;33.040;2022-09-06T09:25:22;100326.13;;;30.64;100.00
49377;BME280;35253;34.688;33.040;2022-09-06T09:27:49;100315.88;;;30.35;100.00
49377;BME280;35253;34.688;33.040;2022-09-06T09:30:22;100321.72;;;30.45;100.00
49377;BME280;35253;34.688;33.040;2022-09-06T09:32:48;100326.06;;;30.28;100.00
49377;BME280;35253;34.688;33.040;2022-09-06T09:35:18;100324.47;;;30.20;100.00
49377;BME280;35253;34.688;33.040;2022-09-06T09:37:44;100332.53;;;30.40;100.00
49377;BME280;35253;34.688;33.040;2022-09-06T09:40:49;100324.47;;;30.45;100.00
49377;BME280;35253;34.688;33.040;2022-09-06T09:43:12;100315.41;;;30.38;100.00
49377;BME280;35253;34.688;33.040;2022-09-06T09:45:39;100314.66;;;30.31;100.00
49377;BME280;35253;34.688;33.040;2022-09-06T09:48:24;100315.22;;;30.15;100.00
49377;BME280;35253;34.688;33.040;2022-09-06T09:50:51;100318.59;;;30.17;100.00
49377;BME280;35253;34.688;33.040;2022-09-06T09:53:18;100307.53;;;30.41;100.00
49377;BME280;35253;34.688;33.040;2022-09-06T09:55:43;100307.06;;;30.26;100.00
49377;BME280;35253;34.688;33.040;2022-09-06T10:01:07;100303.44;;;31.17;100.00
49377;BME280;35253;34.688;33.040;2022-09-06T10:03:33;100307.75;;;31.13;100.00
49377;BME280;35253;34.688;33.040;2022-09-06T10:05:58;100304.56;;;30.79;100.00
49377;BME280;35253;34.688;33.040;2022-09-06T10:08:27;100303.19;;;30.88;100.00
49377;BME280;35253;34.688;33.040;2022-09-06T10:10:54;100300.91;;;31.45;100.00
49377;BME280;35253;34.688;33.040;2022-09-06T10:13:25;100303.97;;;31.79;100.00
49377;BME280;35253;34.688;33.040;2022-09-06T10:15:53;100290.06;;;31.62;100.00
49377;BME280;35253;34.688;33.040;2022-09-06T10:18:32;100285.78;;;31.36;100.00
49377;BME280;35253;34.688;33.040;2022-09-06T10:21:02;100283.06;;;31.48;100.00
49377;BME280;35253;34.688;33.040;2022-09-06T10:35:55;100270.94;;;32.25;100.00
49377;BME280;35253;34.688;33.040;2022-09-06T10:38:24;100277.13;;;32.44;100.00
49377;BME280;35253;34.688;33.040;2022-09-06T10:43:56;100261.44;;;31.98;100.00
49377;BME280;35253;34.688;33.040;2022-09-06T10:46:17;100261.75;;;32.59;100.00
49377;BME280;35253;34.688;33.040;2022-09-06T10:48:45;100269.97;;;32.19;100.00
49377;BME280;35253;34.688;33.040;2022-09-06T10:51:31;100285.66;;;31.96;100.00
49377;BME280;35253;34.688;33.040;2022-09-06T10:57:06;100263.59;;;32.31;100.00
49377;BME280;35253;34.688;33.040;2022-09-06T11:04:30;100300.28;;;32.08;100.00
49377;BME280;35253;34.688;33.040;2022-09-06T11:07:00;100305.06;;;31.77;100.00
49377;BME280;35253;34.688;33.040;2022-09-06T11:09:31;100317.19;;;31.77;100.00
49377;BME280;35253;34.688;33.040;2022-09-06T11:14:24;100295.03;;;32.06;100.00
49377;BME280;35253;34.688;33.040;2022-09-06T11:16:51;100288.03;;;32.04;100.00
49377;BME280;35253;34.688;33.040;2022-09-06T11:19:23;100286.63;;;32.36;100.00
49377;BME280;35253;34.688;33.040;2022-09-06T11:24:42;100291.31;;;32.87;100.00
49377;BME280;35253;34.688;33.040;2022-09-06T11:30:06;100308.19;;;31.93;100.00
49377;BME280;35253;34.688;33.040;2022-09-06T11:32:38;100309.19;;;32.10;100.00
49377;BME280;35253;34.688;33.040;2022-09-06T11:35:26;100293.94;;;31.84;100.00
49377;BME280;35253;34.688;33.040;2022-09-06T11:40:37;100296.53;;;31.26;100.00
49377;BME280;35253;34.688;33.040;2022-09-06T11:45:44;100296.59;;;31.08;100.00
49377;BME280;35253;34.688;33.040;2022-09-06T11:53:21;100259.56;;;31.45;100.00
49377;BME280;35253;34.688;33.040;2022-09-06T12:06:17;100243.44;;;32.30;100.00
49377;BME280;35253;34.688;33.040;2022-09-06T12:08:44;100238.69;;;32.54;100.00
49377;BME280;35253;34.688;33.040;2022-09-06T12:13:52;100240.09;;;32.05;100.00
49377;BME280;35253;34.688;33.040;2022-09-06T12:16:19;100231.47;;;32.13;100.00
49377;BME280;35253;34.688;33.040;2022-09-06T12:23:55;100219.13;;;31.81;100.00
49377;BME280;35253;34.688;33.040;2022-09-06T12:29:08;100214.91;;;32.13;100.00
49377;BME280;35253;34.688;33.040;2022-09-06T12:31:38;100218.09;;;31.28;100.00
49377;BME280;35253;34.688;33.040;2022-09-06T12:34:26;100204.09;;;31.53;100.00
49377;BME280;35253;34.688;33.040;2022-09-06T12:36:54;100218.19;;;31.63;100.00
49377;BME280;35253;34.688;33.040;2022-09-06T12:39:20;100202.91;;;31.96;100.00
49377;BME280;35253;34.688;33.040;2022-09-06T12:41:47;100199.91;;;31.39;100.00
49377;BME280;35253;34.688;33.040;2022-09-06T12:44:13;100203.72;;;31.26;100.00
49377;BME280;35253;34.688;33.040;2022-09-06T12:46:43;100211.88;;;31.45;100.00
49377;BME280;35253;34.688;33.040;2022-09-06T12:49:10;100209.06;;;31.74;100.00
49377;BME280;35253;34.688;33.040;2022-09-06T12:51:36;100204.59;;;31.50;100.00
49377;BME280;35253;34.688;33.040;2022-09-06T12:54:15;100212.88;;;31.73;100.00
49377;BME280;35253;34.688;33.040;2022-09-06T12:56:41;100216.44;;;31.51;100.00
49377;BME280;35253;34.688;33.040;2022-09-06T13:01:46;100215.28;;;31.58;100.00
49377;BME280;35253;34.688;33.040;2022-09-06T13:04:16;100228.28;;;31.51;100.00
49377;BME280;35253;34.688;33.040;2022-09-06T13:06:44;100230.75;;;31.59;100.00
49377;BME280;35253;34.688;33.040;2022-09-06T13:09:15;100222.91;;;31.45;100.00
49377;BME280;35253;34.688;33.040;2022-09-06T13:11:43;100215.97;;;31.54;100.00
49377;BME280;35253;34.688;33.040;2022-09-06T13:14:15;100208.50;;;31.31;100.00
49377;BME280;35253;34.688;33.040;2022-09-06T13:16:43;100216.06;;;31.47;100.00
49377;BME280;35253;34.688;33.040;2022-09-06T13:19:11;100210.06;;;31.27;100.00
49377;BME280;35253;34.688;33.040;2022-09-06T13:21:37;100210.63;;;31.59;100.00
49377;BME280;35253;34.688;33.040;2022-09-06T13:24:16;100205.28;;;31.34;100.00
49377;BME280;35253;34.688;33.040;2022-09-06T13:26:42;100198.50;;;31.60;100.00
49377;BME280;35253;34.688;33.040;2022-09-06T13:31:46;100203.50;;;31.51;100.00
49377;BME280;35253;34.688;33.040;2022-09-06T13:36:50;100192.34;;;31.35;100.00
49377;BME280;35253;34.688;33.040;2022-09-06T13:39:32;100187.94;;;31.45;100.00
49377;BME280;35253;34.688;33.040;2022-09-06T13:42:00;100192.72;;;31.50;100.00
49377;BME280;35253;34.688;33.040;2022-09-06T13:44:27;100194.88;;;31.48;100.00
49377;BME280;35253;34.688;33.040;2022-09-06T13:46:53;100201.16;;;31.55;100.00
49377;BME280;35253;34.688;33.040;2022-09-06T13:49:19;100203.97;;;31.37;100.00
49377;BME280;35253;34.688;33.040;2022-09-06T13:51:47;100193.31;;;31.28;100.00
49377;BME280;35253;34.688;33.040;2022-09-06T13:54:13;100193.13;;;31.12;100.00
49377;BME280;35253;34.688;33.040;2022-09-06T13:56:39;100197.22;;;31.09;100.00
49377;BME280;35253;34.688;33.040;2022-09-06T13:59:06;100190.16;;;31.13;100.00
49377;BME280;35253;34.688;33.040;2022-09-06T14:01:32;100196.16;;;31.22;100.00
49377;BME280;35253;34.688;33.040;2022-09-06T14:03:58;100195.56;;;31.20;100.00
49377;BME280;35253;34.688;33.040;2022-09-06T14:06:23;100195.22;;;31.28;100.00
49377;BME280;35253;34.688;33.040;2022-09-06T14:08:49;100204.44;;;31.33;100.00
49377;BME280;35253;34.688;33.040;2022-09-06T14:11:15;100201.41;;;31.12;100.00
49377;BME280;35253;34.688;33.040;2022-09-06T14:13:41;100211.72;;;31.16;100.00
49377;BME280;35253;34.688;33.040;2022-09-06T14:16:06;100217.34;;;31.21;100.00
49377;BME280;35253;34.688;33.040;2022-09-06T14:18:32;100220.38;;;31.20;100.00
49377;BME280;35253;34.688;33.040;2022-09-06T14:20:57;100212.41;;;31.12;100.00
49377;BME280;35253;34.688;33.040;2022-09-06T14:23:23;100217.00;;;31.18;100.00
49377;BME280;35253;34.688;33.040;2022-09-06T14:25:53;100215.78;;;31.14;100.00
49377;BME280;35253;34.688;33.040;2022-09-06T14:28:19;100222.50;;;31.18;100.00
49377;BME280;35253;34.688;33.040;2022-09-06T14:30:45;100220.81;;;31.17;100.00
49377;BME280;35253;34.688;33.040;2022-09-06T14:33:10;100208.75;;;31.00;100.00
49377;BME280;35253;34.688;33.040;2022-09-06T14:35:37;100215.34;;;30.99;100.00
49377;BME280;35253;34.688;33.040;2022-09-06T14:38:03;100213.75;;;31.09;100.00
49377;BME280;35253;34.688;33.040;2022-09-06T14:40:32;100217.72;;;30.95;100.00